This is the latest recevied weather packets stored in our database for station/object W4CPD. If no packets are shown the sender has not sent any weather packets the latest 10 day(s).
| Time | Temp. | Humidity | Pressure | Rain* | Wind** | Luminosity | Snow |
|---|---|---|---|---|---|---|---|
| 1778006729 | 26.67° C | 74% | 1015.9 hPa | 0 mm | - | - | - |
| 1778005512 | 25.56° C | 75% | 1016.2 hPa | 0 mm | - | - | - |
| 1778004617 | 25.56° C | 74% | 1016.3 hPa | 0 mm | - | - | - |
| 1778003714 | 25.56° C | 74% | 1016.2 hPa | 0 mm | - | - | - |
| 1778002813 | 25.56° C | 74% | 1016.1 hPa | 0 mm | - | - | - |
| 1778002228 | 25.56° C | 74% | 1016 hPa | 0 mm | - | - | - |
| 1778000431 | 25° C | 74% | 1016.2 hPa | 0 mm | - | - | - |
| 1777998914 | 25° C | 73% | 1016.3 hPa | 0 mm | - | - | - |
| 1777998628 | 25° C | 73% | 1016.5 hPa | 0 mm | - | - | - |
| 1777995614 | 23.89° C | 71% | 1016.6 hPa | 0 mm | - | - | - |
| 1777995313 | 23.33° C | 71% | 1016.5 hPa | 0 mm | - | - | - |
| 1777990814 | 19.44° C | 81% | 1016.3 hPa | 0 mm | - | - | - |
| 1777989914 | 18.33° C | 83% | 1016.2 hPa | 0 mm | - | - | - |
| 1777987848 | 15.56° C | 92% | 1016.2 hPa | 0 mm | - | - | - |
| 1777987514 | 15.56° C | 92% | 1016.2 hPa | 0 mm | - | - | - |
| 1777986031 | 13.89° C | 95% | 1016 hPa | 0 mm | - | - | - |
| 1777985415 | 13.33° C | 96% | 1015.9 hPa | 0 mm | - | - | - |
| 1777985129 | 13.33° C | 95% | 1015.7 hPa | 0 mm | - | - | - |
| 1777984816 | 12.78° C | 95% | 1015.8 hPa | 0 mm | - | - | - |
| 1777982713 | 12.22° C | 95% | 1015.7 hPa | 0 mm | - | - | - |
| 1777982431 | 12.22° C | 95% | 1015.7 hPa | 0 mm | - | - | - |
| 1777980914 | 11.67° C | 95% | 1015.5 hPa | 0 mm | - | - | - |
| 1777980018 | 11.67° C | 95% | 1015.5 hPa | 0 mm | - | - | - |
| 1777979748 | 11.67° C | 95% | 1015.5 hPa | 0 mm | - | - | - |
| 1777979115 | 11.11° C | 95% | 1015.4 hPa | 0 mm | - | - | - |
* Rain latest hour (hover to see other rain measurements)
** Current wind speed in m/s (hover to see current wind gust speed)